createdAt,value
2017-02-16T00:00:32.978Z,21.53
2017-02-16T00:01:34.118Z,21.46
2017-02-16T00:02:34.129Z,21.52
2017-02-16T00:03:32.874Z,21.58
2017-02-16T00:04:33.292Z,21.5
2017-02-16T00:05:33.453Z,21.47
2017-02-16T00:06:33.825Z,21.49
2017-02-16T00:07:34.183Z,21.47
2017-02-16T00:08:33.725Z,21.44
2017-02-16T00:09:33.041Z,21.43
2017-02-16T00:10:33.430Z,21.4
2017-02-16T00:11:33.483Z,21.44
2017-02-16T00:12:33.615Z,21.44
2017-02-16T00:13:34.306Z,21.4
2017-02-16T00:14:33.581Z,21.35
2017-02-16T00:15:34.025Z,21.38
2017-02-16T00:16:33.627Z,21.42
2017-02-16T00:17:33.990Z,21.32
2017-02-16T00:18:32.885Z,21.4
2017-02-16T00:19:33.683Z,21.34
2017-02-16T00:20:34.594Z,21.35
2017-02-16T00:21:33.370Z,21.27
2017-02-16T00:22:34.591Z,21.4
2017-02-16T00:23:34.479Z,21.37
2017-02-16T00:24:34.610Z,21.42
2017-02-16T00:25:33.478Z,21.28
2017-02-16T00:26:33.895Z,21.32
2017-02-16T00:27:33.539Z,21.32
2017-02-16T00:28:34.134Z,21.25
2017-02-16T00:29:33.598Z,21.34
2017-02-16T00:30:33.456Z,21.31
2017-02-16T00:31:34.136Z,21.25
2017-02-16T00:32:34.494Z,21.38
2017-02-16T00:33:33.674Z,21.22
2017-02-16T00:34:34.246Z,21.29
2017-02-16T00:35:34.504Z,21.28
2017-02-16T00:36:34.149Z,21.31
2017-02-16T00:37:34.075Z,21.29
2017-02-16T00:38:34.401Z,21.32
2017-02-16T00:39:33.840Z,21.35
2017-02-16T00:40:33.885Z,21.25
2017-02-16T00:41:34.476Z,21.25
2017-02-16T00:42:34.954Z,21.24
2017-02-16T00:43:35.242Z,21.19
2017-02-16T00:44:34.374Z,21.13
2017-02-16T00:45:34.575Z,21.24
2017-02-16T00:46:34.471Z,21.19
2017-02-16T00:47:34.718Z,21.14
2017-02-16T00:48:34.481Z,21.16
2017-02-16T00:49:34.128Z,21.17
2017-02-16T00:50:34.855Z,21.17
2017-02-16T00:51:35.113Z,21.14
2017-02-16T00:52:34.850Z,21.17
2017-02-16T00:53:33.991Z,21.14
2017-02-16T00:54:35.126Z,21.13
2017-02-16T00:55:34.288Z,21.07
2017-02-16T00:56:34.325Z,21.13
2017-02-16T00:57:34.582Z,21.13
2017-02-16T00:58:35.514Z,21.13
2017-02-16T00:59:34.774Z,21.07
2017-02-16T01:00:34.508Z,21.13
2017-02-16T01:01:35.798Z,21.14
2017-02-16T01:02:34.328Z,21.09
2017-02-16T01:03:35.286Z,21.09
2017-02-16T01:04:35.256Z,21.1
2017-02-16T01:05:35.246Z,21.09
2017-02-16T01:06:34.569Z,21.09
2017-02-16T01:07:35.279Z,21.04
2017-02-16T01:08:35.015Z,21.06
2017-02-16T01:09:35.500Z,21.06
2017-02-16T01:10:35.118Z,21.07
2017-02-16T01:11:34.708Z,21.03
2017-02-16T01:12:36.257Z,21.01
2017-02-16T01:13:34.781Z,21.06
2017-02-16T01:14:35.532Z,21.03
2017-02-16T01:15:35.258Z,21.01
2017-02-16T01:16:35.585Z,21.06
2017-02-16T01:17:35.960Z,21.09
2017-02-16T01:18:36.147Z,21.03
2017-02-16T01:19:35.370Z,21.01
2017-02-16T01:20:34.962Z,20.95
2017-02-16T01:21:35.564Z,20.94
2017-02-16T01:22:34.854Z,20.94
2017-02-16T01:23:35.441Z,20.97
2017-02-16T01:24:34.674Z,20.92
2017-02-16T01:25:35.577Z,20.95
2017-02-16T01:26:35.523Z,20.98
2017-02-16T01:27:35.397Z,20.99
2017-02-16T01:28:35.978Z,20.94
2017-02-16T01:29:35.188Z,20.98
2017-02-16T01:30:35.913Z,20.98
2017-02-16T01:31:35.652Z,20.95
2017-02-16T01:32:35.280Z,20.94
2017-02-16T01:33:35.870Z,20.97
2017-02-16T01:34:36.634Z,20.88
2017-02-16T01:35:35.660Z,20.98
2017-02-16T01:36:35.371Z,20.92
2017-02-16T01:37:35.908Z,20.94
2017-02-16T01:38:36.143Z,20.84
2017-02-16T01:39:35.852Z,20.91
2017-02-16T01:40:35.889Z,20.94
2017-02-16T01:41:35.533Z,21.01
2017-02-16T01:42:36.333Z,20.98
2017-02-16T01:43:35.495Z,20.95
2017-02-16T01:44:36.160Z,20.89
2017-02-16T01:45:36.097Z,20.87
2017-02-16T01:46:36.532Z,20.87
2017-02-16T01:47:35.679Z,20.89
2017-02-16T01:48:36.102Z,20.87
2017-02-16T01:49:36.121Z,20.87
2017-02-16T01:50:37.111Z,20.89
2017-02-16T01:51:35.778Z,20.87
2017-02-16T01:52:36.252Z,20.87
2017-02-16T01:53:37.121Z,20.88
2017-02-16T01:54:35.855Z,20.94
2017-02-16T01:55:36.816Z,20.87
2017-02-16T01:56:36.549Z,20.84
2017-02-16T01:57:37.136Z,20.88
2017-02-16T01:58:36.367Z,20.89
2017-02-16T01:59:35.991Z,20.91
2017-02-16T02:00:35.635Z,20.85
2017-02-16T02:01:36.798Z,20.91
2017-02-16T02:02:37.264Z,20.87
2017-02-16T02:03:36.426Z,20.77
2017-02-16T02:04:36.885Z,20.88
2017-02-16T02:05:37.431Z,20.85
2017-02-16T02:06:36.173Z,20.89
2017-02-16T02:07:36.254Z,20.85
2017-02-16T02:08:36.652Z,20.84
2017-02-16T02:09:36.678Z,20.87
2017-02-16T02:10:35.912Z,20.82
2017-02-16T02:11:35.937Z,20.72
2017-02-16T02:12:37.216Z,20.79
2017-02-16T02:13:37.009Z,20.72
2017-02-16T02:14:36.311Z,20.82
2017-02-16T02:15:37.153Z,20.73
2017-02-16T02:16:37.226Z,20.73
2017-02-16T02:17:36.861Z,20.73
2017-02-16T02:18:36.761Z,20.73
2017-02-16T02:19:36.522Z,20.77
2017-02-16T02:20:37.878Z,20.74
2017-02-16T02:21:36.820Z,20.8
2017-02-16T02:22:36.244Z,20.76
2017-02-16T02:23:37.371Z,20.7
2017-02-16T02:24:37.368Z,20.77
2017-02-16T02:25:36.282Z,20.74
2017-02-16T02:26:37.125Z,20.76
2017-02-16T02:27:36.847Z,20.62
2017-02-16T02:28:37.026Z,20.76
2017-02-16T02:29:36.389Z,20.7
2017-02-16T02:30:36.421Z,20.61
2017-02-16T02:31:38.158Z,20.72
2017-02-16T02:32:36.881Z,20.76
2017-02-16T02:33:37.557Z,20.69
2017-02-16T02:34:36.797Z,20.59
2017-02-16T02:35:37.345Z,20.7
2017-02-16T02:36:37.671Z,20.74
2017-02-16T02:37:37.828Z,20.59
2017-02-16T02:38:38.049Z,20.62
2017-02-16T02:39:37.445Z,20.64
2017-02-16T02:40:37.074Z,20.61
2017-02-16T02:41:37.498Z,20.62
2017-02-16T02:42:38.383Z,20.73
2017-02-16T02:43:38.684Z,20.67
2017-02-16T02:44:37.581Z,20.62
2017-02-16T02:45:37.341Z,20.74
2017-02-16T02:46:37.860Z,20.59
2017-02-16T02:47:37.272Z,20.61
2017-02-16T02:48:37.940Z,20.62
2017-02-16T02:49:37.332Z,20.66
2017-02-16T02:50:37.773Z,20.64
2017-02-16T02:51:38.004Z,20.67
2017-02-16T02:52:37.909Z,20.64
2017-02-16T02:53:38.080Z,20.59
2017-02-16T02:54:37.897Z,20.61
2017-02-16T02:55:37.884Z,20.64
2017-02-16T02:56:37.513Z,20.57
2017-02-16T02:57:37.529Z,20.61
2017-02-16T02:58:38.628Z,20.58
2017-02-16T02:59:37.604Z,20.58
2017-02-16T03:00:37.612Z,20.66
2017-02-16T03:01:38.738Z,20.55
2017-02-16T03:02:38.811Z,20.67
2017-02-16T03:03:38.307Z,20.51
2017-02-16T03:04:37.705Z,20.62
2017-02-16T03:05:38.138Z,20.55
2017-02-16T03:06:38.878Z,20.55
2017-02-16T03:07:38.520Z,20.54
2017-02-16T03:08:38.923Z,20.59
2017-02-16T03:09:38.240Z,20.54
2017-02-16T03:10:37.880Z,20.54
2017-02-16T03:11:38.898Z,20.5
2017-02-16T03:12:37.930Z,20.47
2017-02-16T03:13:37.962Z,20.54
2017-02-16T03:14:38.374Z,20.48
2017-02-16T03:15:38.658Z,20.52
2017-02-16T03:16:38.433Z,20.5
2017-02-16T03:17:39.305Z,20.47
2017-02-16T03:18:37.719Z,20.57
2017-02-16T03:19:38.393Z,20.5
2017-02-16T03:20:38.273Z,20.52
2017-02-16T03:21:39.333Z,20.5
2017-02-16T03:22:38.972Z,20.52
2017-02-16T03:23:38.225Z,20.48
2017-02-16T03:24:38.904Z,20.51
2017-02-16T03:25:38.994Z,20.52
2017-02-16T03:26:38.707Z,20.52
2017-02-16T03:27:38.349Z,20.47
2017-02-16T03:28:39.659Z,20.54
2017-02-16T03:29:39.793Z,20.41
2017-02-16T03:30:37.994Z,20.48
2017-02-16T03:31:39.612Z,20.51
2017-02-16T03:32:39.222Z,20.48
2017-02-16T03:33:38.980Z,20.54
2017-02-16T03:34:39.157Z,20.41
2017-02-16T03:35:39.319Z,20.51
2017-02-16T03:36:38.178Z,20.43
2017-02-16T03:37:38.596Z,20.41
2017-02-16T03:38:38.623Z,20.5
2017-02-16T03:39:39.762Z,20.43
2017-02-16T03:40:39.623Z,20.41
2017-02-16T03:41:39.086Z,20.38
2017-02-16T03:42:39.767Z,20.43
2017-02-16T03:43:39.491Z,20.35
2017-02-16T03:44:39.437Z,20.38
2017-02-16T03:45:38.821Z,20.39
2017-02-16T03:46:39.743Z,20.36
2017-02-16T03:47:39.249Z,20.36
2017-02-16T03:48:39.274Z,20.33
2017-02-16T03:49:39.555Z,20.33
2017-02-16T03:50:39.826Z,20.38
2017-02-16T03:51:39.392Z,20.35
2017-02-16T03:52:39.317Z,20.33
2017-02-16T03:53:40.256Z,20.39
2017-02-16T03:54:39.081Z,20.33
2017-02-16T03:55:39.279Z,20.35
2017-02-16T03:56:39.928Z,20.41
2017-02-16T03:57:39.510Z,20.38
2017-02-16T03:58:40.451Z,20.29
2017-02-16T03:59:39.746Z,20.36
2017-02-16T04:00:39.603Z,20.31
2017-02-16T04:01:40.002Z,20.36
2017-02-16T04:02:40.089Z,20.28
2017-02-16T04:03:40.566Z,20.32
2017-02-16T04:04:39.549Z,20.26
2017-02-16T04:05:38.926Z,20.23
2017-02-16T04:06:40.051Z,20.31
2017-02-16T04:07:40.075Z,20.32
2017-02-16T04:08:39.409Z,20.29
2017-02-16T04:09:40.062Z,20.26
2017-02-16T04:10:40.151Z,20.28
2017-02-16T04:11:39.871Z,20.29
2017-02-16T04:12:39.888Z,20.29
2017-02-16T04:13:40.165Z,20.32
2017-02-16T04:14:39.811Z,20.31
2017-02-16T04:15:39.977Z,20.26
2017-02-16T04:16:40.007Z,20.28
2017-02-16T04:17:39.255Z,20.28
2017-02-16T04:18:39.657Z,20.24
2017-02-16T04:19:40.341Z,20.16
2017-02-16T04:20:40.537Z,20.26
2017-02-16T04:21:40.138Z,20.17
2017-02-16T04:22:39.771Z,20.23
2017-02-16T04:23:40.686Z,20.16
2017-02-16T04:24:39.828Z,20.16
2017-02-16T04:25:40.605Z,20.2
2017-02-16T04:26:40.588Z,20.14
2017-02-16T04:27:40.620Z,20.21
2017-02-16T04:28:40.323Z,20.18
2017-02-16T04:29:39.953Z,20.16
2017-02-16T04:30:40.822Z,20.28
2017-02-16T04:31:40.367Z,20.13
2017-02-16T04:32:40.021Z,20.14
2017-02-16T04:33:40.059Z,20.21
2017-02-16T04:34:41.317Z,20.26
2017-02-16T04:35:40.710Z,20.24
2017-02-16T04:36:40.171Z,20.18
2017-02-16T04:37:41.507Z,20.13
2017-02-16T04:38:41.068Z,20.21
2017-02-16T04:39:40.211Z,20.23
2017-02-16T04:40:40.881Z,20.2
2017-02-16T04:41:40.762Z,20.18
2017-02-16T04:42:40.290Z,20.16
2017-02-16T04:43:40.549Z,20.18
2017-02-16T04:44:40.741Z,20.14
2017-02-16T04:45:41.005Z,20.14
2017-02-16T04:46:41.628Z,20.17
2017-02-16T04:47:40.633Z,20.16
2017-02-16T04:48:40.462Z,20.2
2017-02-16T04:49:40.903Z,20.11
2017-02-16T04:50:41.994Z,20.18
2017-02-16T04:51:41.356Z,20.23
2017-02-16T04:52:41.284Z,20.14
2017-02-16T04:53:40.574Z,20.05
2017-02-16T04:54:40.759Z,20.13
2017-02-16T04:55:41.743Z,20.13
2017-02-16T04:56:41.037Z,20.14
2017-02-16T04:57:41.407Z,20.14
2017-02-16T04:58:40.718Z,20.03
2017-02-16T04:59:40.346Z,20.05
2017-02-16T05:00:41.030Z,20.06
2017-02-16T05:01:41.997Z,20.05
2017-02-16T05:02:41.655Z,20.05
2017-02-16T05:03:40.841Z,20.03
2017-02-16T05:04:42.139Z,20.08
2017-02-16T05:05:41.851Z,20.06
2017-02-16T05:06:41.322Z,20.08
2017-02-16T05:07:40.957Z,20.03
2017-02-16T05:08:42.212Z,20.08
2017-02-16T05:09:41.003Z,20.05
2017-02-16T05:10:41.696Z,20.03
2017-02-16T05:11:41.436Z,20.06
2017-02-16T05:12:41.976Z,20.03
2017-02-16T05:13:41.491Z,20.05
2017-02-16T05:14:41.384Z,20.05
2017-02-16T05:15:41.802Z,20.1
2017-02-16T05:16:41.255Z,20.03
2017-02-16T05:17:41.216Z,20.06
2017-02-16T05:18:41.623Z,20.06
2017-02-16T05:19:41.646Z,20.05
2017-02-16T05:20:41.931Z,20.06
2017-02-16T05:21:41.664Z,20.08
2017-02-16T05:22:41.700Z,20.05
2017-02-16T05:23:40.969Z,20.03
2017-02-16T05:24:41.778Z,20.01
2017-02-16T05:25:42.628Z,20.14
2017-02-16T05:26:41.443Z,20.2
2017-02-16T05:27:41.879Z,20.16
2017-02-16T05:28:41.884Z,20.17
2017-02-16T05:29:42.283Z,20.2
2017-02-16T05:30:42.225Z,20.18
2017-02-16T05:31:42.820Z,20.24
2017-02-16T05:32:42.704Z,20.29
2017-02-16T05:33:42.336Z,20.33
2017-02-16T05:34:41.663Z,20.38
2017-02-16T05:35:42.333Z,20.35
2017-02-16T05:36:42.109Z,20.33
2017-02-16T05:37:42.316Z,20.36
2017-02-16T05:38:41.902Z,20.36
2017-02-16T05:39:42.452Z,20.47
2017-02-16T05:40:43.203Z,20.52
2017-02-16T05:41:42.833Z,20.43
2017-02-16T05:42:42.268Z,20.47
2017-02-16T05:43:41.488Z,20.57
2017-02-16T05:44:41.516Z,20.58
2017-02-16T05:45:43.019Z,20.47
2017-02-16T05:46:41.971Z,20.61
2017-02-16T05:47:42.247Z,20.61
2017-02-16T05:48:41.632Z,20.54
2017-02-16T05:49:42.484Z,20.58
2017-02-16T05:50:42.318Z,20.66
2017-02-16T05:51:42.102Z,20.64
2017-02-16T05:52:42.519Z,20.61
2017-02-16T05:53:42.852Z,20.59
2017-02-16T05:54:42.190Z,20.61
2017-02-16T05:55:42.757Z,20.69
2017-02-16T05:56:43.331Z,20.64
2017-02-16T05:57:42.259Z,20.62
2017-02-16T05:58:42.910Z,20.59
2017-02-16T05:59:43.151Z,20.77
2017-02-16T06:00:42.979Z,20.62
2017-02-16T06:01:42.362Z,20.74
2017-02-16T06:02:42.391Z,20.82
2017-02-16T06:03:43.009Z,20.73
2017-02-16T06:04:42.852Z,20.8
2017-02-16T06:05:43.229Z,20.82
2017-02-16T06:06:43.237Z,20.76
2017-02-16T06:07:43.036Z,20.76
2017-02-16T06:08:43.678Z,20.76
2017-02-16T06:09:42.571Z,20.87
2017-02-16T06:10:43.245Z,20.84
2017-02-16T06:11:42.625Z,20.82
2017-02-16T06:12:43.047Z,20.91
2017-02-16T06:13:42.763Z,20.84
2017-02-16T06:14:42.912Z,20.88
2017-02-16T06:15:42.902Z,20.87
2017-02-16T06:16:42.779Z,20.87
2017-02-16T06:17:42.776Z,20.92
2017-02-16T06:18:42.821Z,20.92
2017-02-16T06:19:42.832Z,21.04
2017-02-16T06:20:43.932Z,20.95
2017-02-16T06:21:43.622Z,20.98
2017-02-16T06:22:44.029Z,20.85
2017-02-16T06:23:43.335Z,20.94
2017-02-16T06:24:43.172Z,20.98
2017-02-16T06:25:43.996Z,21.01
2017-02-16T06:26:43.425Z,20.91
2017-02-16T06:27:43.055Z,20.91
2017-02-16T06:28:43.284Z,21.04
2017-02-16T06:29:43.982Z,20.99
2017-02-16T06:30:43.772Z,20.98
2017-02-16T06:31:43.749Z,20.97
2017-02-16T06:32:43.777Z,20.95
2017-02-16T06:33:43.467Z,20.94
2017-02-16T06:34:43.647Z,20.97
2017-02-16T06:35:42.859Z,20.99
2017-02-16T06:36:43.281Z,21.06
2017-02-16T06:37:44.365Z,20.98
2017-02-16T06:38:44.008Z,21.09
2017-02-16T06:39:43.379Z,20.92
2017-02-16T06:40:43.382Z,21.03
2017-02-16T06:41:43.018Z,21.03
2017-02-16T06:42:43.651Z,21.04
2017-02-16T06:43:43.812Z,20.98
2017-02-16T06:44:44.241Z,21.03
2017-02-16T06:45:43.511Z,21.04
2017-02-16T06:46:43.960Z,20.97
2017-02-16T06:47:43.681Z,21.03
2017-02-16T06:48:43.598Z,21.06
2017-02-16T06:49:43.635Z,21.06
2017-02-16T06:50:44.284Z,21.04
2017-02-16T06:51:44.466Z,21.04
2017-02-16T06:52:44.147Z,21.09
2017-02-16T06:53:44.130Z,21.06
2017-02-16T06:54:43.366Z,21.12
2017-02-16T06:55:44.702Z,21.06
2017-02-16T06:56:44.717Z,21.07
2017-02-16T06:57:45.165Z,21.17
2017-02-16T06:58:44.261Z,21.1
2017-02-16T06:59:44.280Z,21.19
2017-02-16T07:00:45.048Z,21.13
2017-02-16T07:01:44.328Z,21.24
2017-02-16T07:02:43.977Z,21.27
2017-02-16T07:03:45.215Z,21.34
2017-02-16T07:04:43.630Z,21.38
2017-02-16T07:05:44.071Z,21.34
2017-02-16T07:06:44.535Z,21.31
2017-02-16T07:07:43.841Z,21.34
2017-02-16T07:08:45.089Z,21.38
2017-02-16T07:09:44.156Z,21.37
2017-02-16T07:10:44.182Z,21.34
2017-02-16T07:11:44.640Z,21.29
2017-02-16T07:12:45.017Z,21.42
2017-02-16T07:13:45.114Z,21.32
2017-02-16T07:14:44.287Z,21.4
2017-02-16T07:15:45.283Z,21.37
2017-02-16T07:16:44.353Z,21.37
2017-02-16T07:17:44.375Z,21.34
2017-02-16T07:18:45.149Z,21.35
2017-02-16T07:19:45.526Z,21.38
2017-02-16T07:20:44.456Z,21.37
2017-02-16T07:21:44.728Z,21.46
2017-02-16T07:22:44.922Z,21.47
2017-02-16T07:23:44.601Z,21.44
2017-02-16T07:24:45.218Z,21.43
2017-02-16T07:25:44.953Z,21.43
2017-02-16T07:26:44.854Z,21.53
2017-02-16T07:27:45.364Z,21.46
2017-02-16T07:28:44.855Z,21.5
2017-02-16T07:29:45.120Z,21.58
2017-02-16T07:30:45.144Z,21.59
2017-02-16T07:31:45.730Z,21.61
2017-02-16T07:32:45.285Z,21.58
2017-02-16T07:33:44.812Z,21.67
2017-02-16T07:34:45.225Z,21.53
2017-02-16T07:35:45.286Z,21.64
2017-02-16T07:36:45.645Z,21.67
2017-02-16T07:37:45.310Z,21.68
2017-02-16T07:38:45.358Z,21.64
2017-02-16T07:39:45.348Z,21.72
2017-02-16T07:40:45.382Z,21.72
2017-02-16T07:41:45.711Z,21.72
2017-02-16T07:42:45.425Z,21.71
2017-02-16T07:43:45.062Z,21.75
2017-02-16T07:44:45.347Z,21.72
2017-02-16T07:45:44.730Z,21.77
2017-02-16T07:46:45.382Z,21.71
2017-02-16T07:47:45.163Z,21.82
2017-02-16T07:48:46.356Z,21.75
2017-02-16T07:49:45.803Z,21.8
2017-02-16T07:50:45.651Z,21.74
2017-02-16T07:51:45.526Z,21.69
2017-02-16T07:52:45.702Z,21.77
2017-02-16T07:53:46.014Z,21.71
2017-02-16T07:54:45.544Z,21.82
2017-02-16T07:55:46.360Z,21.72
2017-02-16T07:56:45.272Z,21.77
2017-02-16T07:57:45.545Z,21.77
2017-02-16T07:58:46.135Z,21.72
2017-02-16T07:59:45.507Z,21.72
2017-02-16T08:00:45.913Z,21.75
2017-02-16T08:01:46.404Z,21.77
2017-02-16T08:02:45.202Z,21.8
2017-02-16T08:03:45.582Z,21.75
2017-02-16T08:04:46.286Z,21.74
2017-02-16T08:05:46.278Z,21.75
2017-02-16T08:06:46.950Z,21.75
2017-02-16T08:07:46.102Z,21.79
2017-02-16T08:08:45.737Z,21.77
2017-02-16T08:09:46.212Z,21.77
2017-02-16T08:10:46.241Z,21.8
2017-02-16T08:11:46.696Z,21.79
2017-02-16T08:12:45.442Z,21.77
2017-02-16T08:13:46.262Z,21.8
2017-02-16T08:14:46.302Z,21.8
2017-02-16T08:15:46.778Z,21.8
2017-02-16T08:16:46.450Z,21.86
2017-02-16T08:17:46.555Z,21.8
2017-02-16T08:18:46.387Z,21.82
2017-02-16T08:19:46.432Z,21.82
2017-02-16T08:20:46.594Z,21.79
2017-02-16T08:21:46.813Z,21.86
2017-02-16T08:22:46.350Z,21.82
2017-02-16T08:23:46.561Z,21.84
2017-02-16T08:24:46.551Z,21.79
2017-02-16T08:25:46.195Z,21.86
2017-02-16T08:26:47.655Z,21.75
2017-02-16T08:27:47.023Z,21.91
2017-02-16T08:28:46.950Z,21.91
2017-02-16T08:29:46.281Z,21.84
2017-02-16T08:30:46.330Z,21.82
2017-02-16T08:31:46.374Z,21.98
2017-02-16T08:32:46.982Z,22.02
2017-02-16T08:33:47.480Z,22.12
2017-02-16T08:34:46.028Z,22.27
2017-02-16T08:35:46.686Z,22.37
2017-02-16T08:36:46.886Z,22.7
2017-02-16T08:37:47.240Z,22.91
2017-02-16T08:38:46.982Z,23.22
2017-02-16T08:39:46.569Z,23.38
2017-02-16T08:40:47.522Z,23.57
2017-02-16T08:41:47.088Z,23.69
2017-02-16T08:42:46.983Z,23.79
2017-02-16T08:43:47.379Z,23.91
2017-02-16T08:44:47.120Z,24
2017-02-16T08:45:47.856Z,24.13
2017-02-16T08:46:47.158Z,24.21
2017-02-16T08:47:46.806Z,24.39
2017-02-16T08:48:47.611Z,24.43
2017-02-16T08:49:47.383Z,24.49
2017-02-16T08:50:47.416Z,24.37
2017-02-16T08:51:47.297Z,24.4
2017-02-16T08:52:47.326Z,24.32
2017-02-16T08:53:47.746Z,24.18
2017-02-16T08:54:47.576Z,24.02
2017-02-16T08:55:47.240Z,23.87
2017-02-16T08:56:47.433Z,23.8
2017-02-16T08:57:46.707Z,23.65
2017-02-16T08:58:47.255Z,23.47
2017-02-16T08:59:47.240Z,23.35
2017-02-16T09:00:46.748Z,23.23
2017-02-16T09:01:47.098Z,23.22
2017-02-16T09:02:48.192Z,23.16
2017-02-16T09:03:47.907Z,22.98
2017-02-16T09:04:47.649Z,23.01
2017-02-16T09:05:47.283Z,22.86
2017-02-16T09:06:48.032Z,22.82
2017-02-16T09:07:48.016Z,22.8
2017-02-16T09:08:46.996Z,22.68
2017-02-16T09:09:47.406Z,22.77
2017-02-16T09:10:48.343Z,22.73
2017-02-16T09:11:48.130Z,22.73
2017-02-16T09:12:47.101Z,22.67
2017-02-16T09:13:48.209Z,22.6
2017-02-16T09:14:47.535Z,22.67
2017-02-16T09:15:48.375Z,22.64
2017-02-16T09:16:48.088Z,22.61
2017-02-16T09:17:48.555Z,22.58
2017-02-16T09:18:47.657Z,22.55
2017-02-16T09:19:47.264Z,22.61
2017-02-16T09:20:47.703Z,22.54
2017-02-16T09:21:48.199Z,22.52
2017-02-16T09:22:47.993Z,22.46
2017-02-16T09:23:47.781Z,22.55
2017-02-16T09:24:47.810Z,22.46
2017-02-16T09:25:47.832Z,22.51
2017-02-16T09:26:48.571Z,22.55
2017-02-16T09:27:48.032Z,22.45
2017-02-16T09:28:48.964Z,22.42
2017-02-16T09:29:47.554Z,22.45
2017-02-16T09:30:48.147Z,22.39
2017-02-16T09:31:48.409Z,22.39
2017-02-16T09:32:49.084Z,22.4
2017-02-16T09:33:49.105Z,22.39
2017-02-16T09:34:47.705Z,22.4
2017-02-16T09:35:48.103Z,22.39
2017-02-16T09:36:48.841Z,22.37
2017-02-16T09:37:48.560Z,22.39
2017-02-16T09:38:48.187Z,22.39
2017-02-16T09:39:48.632Z,22.39
2017-02-16T09:40:49.111Z,22.39
2017-02-16T09:41:48.838Z,22.46
2017-02-16T09:42:48.287Z,22.43
2017-02-16T09:43:48.733Z,22.47
2017-02-16T09:44:48.365Z,22.52
2017-02-16T09:45:48.984Z,22.49
2017-02-16T09:46:49.645Z,22.49
2017-02-16T09:47:48.831Z,22.55
2017-02-16T09:48:49.485Z,22.61
2017-02-16T09:49:49.264Z,22.64
2017-02-16T09:50:49.588Z,22.62
2017-02-16T09:51:48.943Z,22.6
2017-02-16T09:52:48.819Z,22.62
2017-02-16T09:53:49.631Z,22.61
2017-02-16T09:54:49.353Z,22.61
2017-02-16T09:55:49.648Z,22.6
2017-02-16T09:56:48.680Z,22.7
2017-02-16T09:57:48.955Z,22.76
2017-02-16T09:58:49.405Z,22.75
2017-02-16T09:59:48.821Z,22.76
2017-02-16T10:00:48.406Z,22.79
2017-02-16T10:01:48.808Z,22.91
2017-02-16T10:02:49.731Z,22.83
2017-02-16T10:03:49.276Z,22.83
2017-02-16T10:04:49.297Z,22.88
2017-02-16T10:05:49.680Z,22.82
2017-02-16T10:06:49.814Z,22.95
2017-02-16T10:07:49.238Z,23.02
2017-02-16T10:08:50.117Z,23.02
2017-02-16T10:09:49.495Z,23.05
2017-02-16T10:10:49.449Z,23.09
2017-02-16T10:11:49.499Z,23.05
2017-02-16T10:12:50.388Z,23.1
2017-02-16T10:13:49.609Z,23.12
2017-02-16T10:14:49.263Z,23.16
2017-02-16T10:15:49.647Z,23.19
2017-02-16T10:16:49.216Z,23.17
2017-02-16T10:17:49.118Z,23.17
2017-02-16T10:18:50.520Z,23.25
2017-02-16T10:19:50.070Z,23.2
2017-02-16T10:20:49.353Z,23.22
2017-02-16T10:21:50.193Z,23.2
2017-02-16T10:22:49.975Z,23.25
2017-02-16T10:23:49.439Z,23.2
2017-02-16T10:24:49.839Z,23.23
2017-02-16T10:25:49.480Z,23.28
2017-02-16T10:26:50.064Z,23.35
2017-02-16T10:27:49.386Z,23.31
2017-02-16T10:28:50.124Z,23.31
2017-02-16T10:29:49.573Z,23.38
2017-02-16T10:30:50.393Z,23.36
2017-02-16T10:31:49.805Z,23.32
2017-02-16T10:32:49.917Z,23.28
2017-02-16T10:33:50.094Z,23.39
2017-02-16T10:34:50.196Z,23.32
2017-02-16T10:35:50.184Z,23.35
2017-02-16T10:36:50.183Z,23.27
2017-02-16T10:37:50.048Z,23.27
2017-02-16T10:38:50.225Z,23.38
2017-02-16T10:39:50.305Z,23.42
2017-02-16T10:40:49.712Z,23.27
2017-02-16T10:41:49.551Z,23.27
2017-02-16T10:42:50.920Z,23.25
2017-02-16T10:43:49.703Z,23.28
2017-02-16T10:44:50.086Z,23.22
2017-02-16T10:45:49.637Z,23.25
2017-02-16T10:46:50.080Z,23.23
2017-02-16T10:47:50.870Z,23.23
2017-02-16T10:48:50.121Z,23.22
2017-02-16T10:49:49.765Z,23.27
2017-02-16T10:50:50.677Z,23.22
2017-02-16T10:51:50.196Z,23.22
2017-02-16T10:52:50.861Z,23.22
2017-02-16T10:53:50.966Z,23.23
2017-02-16T10:54:50.666Z,23.23
2017-02-16T10:55:51.057Z,23.25
2017-02-16T10:56:49.947Z,23.25
2017-02-16T10:57:51.021Z,23.25
2017-02-16T10:58:50.409Z,23.25
2017-02-16T10:59:50.998Z,23.23
2017-02-16T11:00:51.088Z,23.31
2017-02-16T11:01:51.598Z,23.23
2017-02-16T11:02:50.756Z,23.32
2017-02-16T11:03:50.933Z,23.33
2017-02-16T11:04:51.645Z,23.36
2017-02-16T11:05:51.687Z,23.32
2017-02-16T11:06:50.919Z,23.36
2017-02-16T11:07:50.904Z,23.31
2017-02-16T11:08:50.673Z,23.38
2017-02-16T11:09:50.692Z,23.31
2017-02-16T11:10:51.203Z,23.35
2017-02-16T11:11:50.974Z,23.39
2017-02-16T11:12:51.046Z,23.42
2017-02-16T11:13:51.851Z,23.36
2017-02-16T11:14:51.708Z,23.4
2017-02-16T11:15:51.275Z,23.46
2017-02-16T11:16:50.506Z,23.43
2017-02-16T11:17:51.166Z,23.36
2017-02-16T11:18:51.784Z,23.46
2017-02-16T11:19:51.004Z,23.42
2017-02-16T11:20:51.746Z,23.51
2017-02-16T11:21:51.055Z,23.5
2017-02-16T11:22:51.401Z,23.4
2017-02-16T11:23:51.512Z,23.53
2017-02-16T11:24:51.138Z,23.5
2017-02-16T11:25:51.156Z,23.53
2017-02-16T11:26:52.399Z,23.55
2017-02-16T11:27:52.720Z,23.54
2017-02-16T11:28:52.175Z,23.54
2017-02-16T11:29:51.646Z,23.54
2017-02-16T11:30:51.390Z,23.66
2017-02-16T11:31:52.076Z,23.61
2017-02-16T11:32:51.754Z,23.6
2017-02-16T11:33:51.774Z,23.66
2017-02-16T11:34:51.839Z,23.66
2017-02-16T11:35:52.475Z,23.69
2017-02-16T11:36:51.709Z,23.7
2017-02-16T11:37:51.499Z,23.66
2017-02-16T11:38:51.920Z,23.76
2017-02-16T11:39:52.231Z,23.76
2017-02-16T11:40:51.608Z,23.76
2017-02-16T11:41:51.593Z,23.78
2017-02-16T11:42:52.049Z,23.79
2017-02-16T11:43:52.450Z,23.87
2017-02-16T11:44:52.589Z,23.85
2017-02-16T11:45:52.120Z,23.87
2017-02-16T11:46:51.753Z,23.8
2017-02-16T11:47:52.175Z,23.94
2017-02-16T11:48:52.155Z,23.93
2017-02-16T11:49:51.859Z,23.94
2017-02-16T11:50:52.458Z,23.93
2017-02-16T11:51:52.413Z,23.98
2017-02-16T11:52:52.146Z,23.93
2017-02-16T11:53:52.037Z,24
2017-02-16T11:54:51.976Z,23.94
2017-02-16T11:55:52.006Z,24.06
2017-02-16T11:56:52.310Z,24.02
2017-02-16T11:57:52.673Z,24.03
2017-02-16T11:58:52.538Z,24.05
2017-02-16T11:59:52.473Z,24.06
2017-02-16T12:00:53.074Z,24.09
2017-02-16T12:01:53.069Z,24.13
2017-02-16T12:02:52.213Z,24.1
2017-02-16T12:03:52.522Z,24.2
2017-02-16T12:04:52.799Z,24.16
2017-02-16T12:05:52.060Z,24.18
2017-02-16T12:06:52.361Z,24.27
2017-02-16T12:07:52.759Z,24.39
2017-02-16T12:08:52.300Z,24.31
2017-02-16T12:09:53.019Z,24.42
2017-02-16T12:10:53.162Z,24.43
2017-02-16T12:11:52.777Z,24.42
2017-02-16T12:12:52.885Z,24.37
2017-02-16T12:13:53.175Z,24.52
2017-02-16T12:14:52.976Z,24.64
2017-02-16T12:15:53.221Z,24.6
2017-02-16T12:16:53.186Z,24.57
2017-02-16T12:17:53.008Z,24.76
2017-02-16T12:18:52.923Z,24.64
2017-02-16T12:19:53.122Z,24.68
2017-02-16T12:20:53.234Z,24.78
2017-02-16T12:21:53.485Z,24.62
2017-02-16T12:22:53.815Z,24.68
2017-02-16T12:23:53.475Z,24.62
2017-02-16T12:24:53.356Z,24.53
2017-02-16T12:25:52.875Z,24.6
2017-02-16T12:26:53.503Z,24.64
2017-02-16T12:27:53.383Z,24.6
2017-02-16T12:28:53.601Z,24.65
2017-02-16T12:29:53.501Z,24.78
2017-02-16T12:30:52.873Z,24.77
2017-02-16T12:31:53.514Z,24.91
2017-02-16T12:32:52.683Z,25
2017-02-16T12:33:53.751Z,25.13
2017-02-16T12:34:53.141Z,25.17
2017-02-16T12:35:53.876Z,25.28
2017-02-16T12:36:53.052Z,25.33
2017-02-16T12:37:53.225Z,25.38
2017-02-16T12:38:53.548Z,25.45
2017-02-16T12:39:53.686Z,25.47
2017-02-16T12:40:54.046Z,25.46
2017-02-16T12:41:53.546Z,25.52
2017-02-16T12:42:53.366Z,25.5
2017-02-16T12:43:53.850Z,25.52
2017-02-16T12:44:53.660Z,25.46
2017-02-16T12:45:53.463Z,25.43
2017-02-16T12:46:53.120Z,25.46
2017-02-16T12:47:53.517Z,25.42
2017-02-16T12:48:53.954Z,25.47
2017-02-16T12:49:53.620Z,25.52
2017-02-16T12:50:53.596Z,25.54
2017-02-16T12:51:54.031Z,25.47
2017-02-16T12:52:53.715Z,25.52
2017-02-16T12:53:53.951Z,25.43
2017-02-16T12:54:53.727Z,25.39